createdAt,value
2023-03-15T00:00:48.606Z,0.00
2023-03-15T00:01:48.593Z,0.00
2023-03-15T00:02:48.742Z,0.00
2023-03-15T00:03:48.662Z,0.00
2023-03-15T00:04:48.595Z,0.00
2023-03-15T00:05:48.568Z,0.00
2023-03-15T00:06:48.602Z,0.00
2023-03-15T00:07:48.579Z,0.00
2023-03-15T00:08:48.559Z,0.00
2023-03-15T00:09:48.559Z,0.00
2023-03-15T00:10:48.538Z,0.00
2023-03-15T00:11:48.551Z,0.00
2023-03-15T00:12:48.522Z,0.00
2023-03-15T00:13:48.524Z,0.00
2023-03-15T00:14:48.517Z,0.00
2023-03-15T00:15:48.590Z,0.00
2023-03-15T00:16:48.522Z,0.00
2023-03-15T00:17:48.539Z,0.00
2023-03-15T00:18:48.509Z,0.00
2023-03-15T00:19:48.470Z,0.00
2023-03-15T00:20:48.489Z,0.00
2023-03-15T00:21:48.470Z,0.00
2023-03-15T00:22:48.506Z,0.00
2023-03-15T00:23:48.457Z,0.00
2023-03-15T00:24:48.441Z,0.00
2023-03-15T00:25:48.461Z,0.00
2023-03-15T00:26:48.435Z,0.00
2023-03-15T00:27:48.461Z,0.00
2023-03-15T00:28:48.427Z,0.00
2023-03-15T00:30:20.967Z,0.00
2023-03-15T00:30:48.520Z,0.00
2023-03-15T00:31:48.430Z,0.00
2023-03-15T00:32:48.555Z,0.00
2023-03-15T00:33:48.406Z,0.00
2023-03-15T00:34:48.389Z,0.00
2023-03-15T00:35:48.457Z,0.00
2023-03-15T00:36:48.469Z,0.00
2023-03-15T00:37:48.406Z,0.00
2023-03-15T00:38:49.061Z,0.00
2023-03-15T00:39:48.387Z,0.00
2023-03-15T00:40:48.423Z,0.00
2023-03-15T00:41:48.394Z,0.00
2023-03-15T00:42:49.347Z,0.00
2023-03-15T00:43:48.333Z,0.00
2023-03-15T00:44:48.345Z,0.00
2023-03-15T00:45:48.324Z,0.00
2023-03-15T00:46:48.382Z,0.00
2023-03-15T00:47:48.326Z,0.00
2023-03-15T00:48:48.325Z,0.00
2023-03-15T00:49:48.358Z,0.00
2023-03-15T00:50:48.336Z,0.00
2023-03-15T00:51:48.351Z,0.00
2023-03-15T00:52:48.280Z,0.00
2023-03-15T00:53:48.316Z,0.00
2023-03-15T00:54:48.313Z,0.00
2023-03-15T00:55:48.293Z,0.00
2023-03-15T00:56:48.290Z,0.00
2023-03-15T00:57:48.305Z,0.00
2023-03-15T00:58:48.291Z,0.00
2023-03-15T00:59:48.285Z,0.00
2023-03-15T01:00:48.252Z,0.00
2023-03-15T01:01:48.370Z,0.00
2023-03-15T01:02:48.260Z,0.00
2023-03-15T01:03:48.238Z,0.00
2023-03-15T01:04:48.253Z,0.00
2023-03-15T01:05:48.261Z,0.00
2023-03-15T01:06:48.238Z,0.00
2023-03-15T01:07:48.247Z,0.00
2023-03-15T01:08:48.291Z,0.00
2023-03-15T01:09:48.668Z,0.00
2023-03-15T01:10:49.215Z,0.00
2023-03-15T01:11:48.247Z,0.00
2023-03-15T01:12:48.188Z,0.00
2023-03-15T01:13:48.175Z,0.00
2023-03-15T01:14:48.165Z,0.00
2023-03-15T01:15:48.216Z,0.00
2023-03-15T01:16:48.259Z,0.00
2023-03-15T01:17:48.169Z,0.00
2023-03-15T01:18:48.121Z,0.00
2023-03-15T01:19:48.192Z,0.00
2023-03-15T01:20:48.121Z,0.00
2023-03-15T01:21:48.214Z,0.00
2023-03-15T01:22:48.098Z,0.00
2023-03-15T01:23:48.106Z,0.00
2023-03-15T01:24:48.127Z,0.00
2023-03-15T01:25:48.152Z,0.00
2023-03-15T01:26:48.092Z,0.00
2023-03-15T01:27:48.075Z,0.00
2023-03-15T01:28:48.094Z,0.00
2023-03-15T01:29:48.120Z,0.00
2023-03-15T01:30:49.756Z,0.00
2023-03-15T01:31:48.136Z,0.00
2023-03-15T01:32:48.085Z,0.00
2023-03-15T01:33:48.617Z,0.00
2023-03-15T01:34:48.009Z,0.00
2023-03-15T01:35:48.054Z,0.00
2023-03-15T01:36:48.029Z,0.00
2023-03-15T01:37:49.045Z,0.00
2023-03-15T01:38:48.064Z,0.00
2023-03-15T01:39:48.005Z,0.00
2023-03-15T01:40:48.018Z,0.00
2023-03-15T01:41:47.997Z,0.00
2023-03-15T01:42:48.057Z,0.00
2023-03-15T01:43:48.005Z,0.00
2023-03-15T01:44:48.001Z,0.00
2023-03-15T01:45:47.984Z,0.00
2023-03-15T01:46:48.064Z,0.00
2023-03-15T01:47:48.011Z,0.00
2023-03-15T01:48:47.961Z,0.00
2023-03-15T01:49:48.014Z,0.00
2023-03-15T01:50:47.933Z,0.00
2023-03-15T01:51:47.950Z,0.00
2023-03-15T01:52:47.937Z,0.00
2023-03-15T01:53:47.919Z,0.00
2023-03-15T01:54:47.905Z,0.00
2023-03-15T01:55:47.900Z,0.00
2023-03-15T01:56:47.894Z,0.00
2023-03-15T01:57:47.897Z,0.00
2023-03-15T01:58:47.922Z,0.00
2023-03-15T01:59:47.878Z,0.00
2023-03-15T02:00:47.875Z,0.00
2023-03-15T02:01:47.902Z,0.00
2023-03-15T02:02:47.886Z,0.00
2023-03-15T02:03:47.884Z,0.00
2023-03-15T02:04:47.869Z,0.00
2023-03-15T02:05:47.837Z,0.00
2023-03-15T02:06:47.888Z,0.00
2023-03-15T02:07:47.822Z,0.00
2023-03-15T02:08:47.807Z,0.00
2023-03-15T02:09:47.816Z,0.00
2023-03-15T02:10:47.814Z,0.00
2023-03-15T02:11:47.822Z,0.00
2023-03-15T02:12:47.802Z,0.00
2023-03-15T02:13:47.792Z,0.00
2023-03-15T02:14:47.794Z,0.00
2023-03-15T02:15:47.753Z,0.00
2023-03-15T02:16:47.829Z,0.00
2023-03-15T02:17:47.802Z,0.00
2023-03-15T02:18:47.738Z,0.00
2023-03-15T02:19:47.761Z,0.00
2023-03-15T02:20:48.045Z,0.00
2023-03-15T02:21:47.741Z,0.00
2023-03-15T02:22:47.741Z,0.00
2023-03-15T02:23:47.750Z,0.00
2023-03-15T02:24:47.815Z,0.00
2023-03-15T02:25:47.758Z,0.00
2023-03-15T02:26:47.791Z,0.00
2023-03-15T02:27:47.697Z,0.00
2023-03-15T02:28:47.739Z,0.00
2023-03-15T02:29:47.768Z,0.00
2023-03-15T02:30:47.724Z,0.00
2023-03-15T02:31:48.104Z,0.00
2023-03-15T02:33:21.337Z,0.00
2023-03-15T02:33:47.690Z,0.00
2023-03-15T02:34:47.708Z,0.00
2023-03-15T02:35:47.667Z,0.00
2023-03-15T02:36:47.699Z,0.00
2023-03-15T02:37:47.633Z,0.00
2023-03-15T02:38:47.672Z,0.00
2023-03-15T02:39:47.654Z,0.00
2023-03-15T02:40:47.638Z,0.00
2023-03-15T02:41:47.648Z,0.00
2023-03-15T02:42:47.634Z,0.00
2023-03-15T02:43:47.605Z,0.00
2023-03-15T02:44:47.573Z,0.00
2023-03-15T02:45:47.631Z,0.00
2023-03-15T02:46:47.702Z,0.00
2023-03-15T02:47:47.624Z,0.00
2023-03-15T02:48:47.599Z,0.00
2023-03-15T02:49:47.664Z,0.00
2023-03-15T02:50:47.583Z,0.00
2023-03-15T02:51:47.632Z,0.00
2023-03-15T02:52:47.589Z,0.00
2023-03-15T02:53:47.529Z,0.00
2023-03-15T02:54:47.522Z,0.00
2023-03-15T02:55:47.555Z,0.00
2023-03-15T02:56:47.544Z,0.00
2023-03-15T02:57:47.551Z,0.00
2023-03-15T02:58:47.547Z,0.00
2023-03-15T03:00:20.577Z,0.00
2023-03-15T03:00:47.550Z,0.00
2023-03-15T03:02:21.115Z,0.00
2023-03-15T03:03:21.166Z,0.00
2023-03-15T03:04:19.823Z,0.00
2023-03-15T03:04:47.491Z,0.00
2023-03-15T03:06:21.953Z,0.00
2023-03-15T03:06:47.509Z,0.00
2023-03-15T03:08:20.919Z,0.00
2023-03-15T03:09:20.635Z,0.00
2023-03-15T03:09:47.450Z,0.00
2023-03-15T03:11:22.071Z,0.00
2023-03-15T03:11:47.465Z,0.00
2023-03-15T03:13:19.900Z,0.00
2023-03-15T03:14:19.878Z,0.00
2023-03-15T03:14:47.442Z,0.00
2023-03-15T03:15:47.449Z,0.00
2023-03-15T03:16:47.481Z,0.00
2023-03-15T03:17:52.476Z,0.00
2023-03-15T03:18:47.396Z,0.00
2023-03-15T03:19:47.385Z,0.00
2023-03-15T03:20:47.399Z,0.00
2023-03-15T03:21:47.368Z,0.00
2023-03-15T03:22:47.358Z,0.00
2023-03-15T03:23:47.394Z,0.00
2023-03-15T03:24:47.349Z,0.00
2023-03-15T03:25:47.328Z,0.00
2023-03-15T03:26:47.317Z,0.00
2023-03-15T03:27:47.335Z,0.00
2023-03-15T03:28:47.441Z,0.00
2023-03-15T03:29:47.309Z,0.00
2023-03-15T03:30:47.363Z,0.00
2023-03-15T03:31:47.295Z,0.00
2023-03-15T03:32:47.308Z,0.00
2023-03-15T03:33:47.299Z,0.00
2023-03-15T03:34:47.328Z,0.00
2023-03-15T03:35:47.289Z,0.00
2023-03-15T03:36:47.255Z,0.00
2023-03-15T03:37:47.261Z,0.00
2023-03-15T03:38:47.358Z,0.00
2023-03-15T03:39:47.278Z,0.00
2023-03-15T03:40:47.249Z,0.00
2023-03-15T03:41:47.237Z,0.00
2023-03-15T03:42:47.213Z,0.00
2023-03-15T03:43:47.230Z,0.00
2023-03-15T03:44:47.255Z,0.00
2023-03-15T03:45:47.280Z,0.00
2023-03-15T03:46:47.196Z,0.00
2023-03-15T03:47:47.224Z,0.00
2023-03-15T03:48:47.196Z,0.00
2023-03-15T03:49:47.196Z,0.00
2023-03-15T03:50:47.219Z,0.00
2023-03-15T03:51:47.173Z,0.00
2023-03-15T03:52:47.187Z,0.00
2023-03-15T03:53:47.206Z,0.00
2023-03-15T03:54:47.175Z,0.00
2023-03-15T03:55:47.155Z,0.00
2023-03-15T03:56:47.157Z,0.00
2023-03-15T03:57:47.165Z,0.00
2023-03-15T03:58:47.199Z,0.00
2023-03-15T03:59:47.116Z,0.00
2023-03-15T04:00:47.131Z,0.00
2023-03-15T04:01:47.113Z,0.00
2023-03-15T04:02:47.136Z,0.00
2023-03-15T04:03:47.134Z,0.00
2023-03-15T04:04:47.119Z,0.00
2023-03-15T04:05:47.084Z,0.00
2023-03-15T04:06:47.103Z,0.00
2023-03-15T04:07:47.085Z,0.00
2023-03-15T04:08:47.063Z,0.00
2023-03-15T04:09:47.068Z,0.00
2023-03-15T04:10:47.049Z,0.00
2023-03-15T04:11:47.078Z,0.00
2023-03-15T04:12:47.042Z,0.00
2023-03-15T04:13:47.051Z,0.00
2023-03-15T04:14:47.018Z,0.00
2023-03-15T04:15:47.072Z,0.00
2023-03-15T04:16:47.018Z,0.00
2023-03-15T04:17:47.129Z,0.00
2023-03-15T04:18:47.026Z,0.00
2023-03-15T04:19:47.194Z,0.00
2023-03-15T04:20:47.037Z,0.00
2023-03-15T04:21:46.991Z,0.00
2023-03-15T04:22:47.013Z,0.00
2023-03-15T04:23:46.974Z,0.00
2023-03-15T04:24:46.971Z,0.00
2023-03-15T04:25:46.969Z,0.00
2023-03-15T04:26:46.963Z,0.00
2023-03-15T04:27:46.953Z,0.00
2023-03-15T04:28:46.989Z,0.00
2023-03-15T04:29:46.964Z,0.00
2023-03-15T04:30:46.928Z,0.00
2023-03-15T04:31:46.931Z,0.00
2023-03-15T04:32:46.957Z,0.00
2023-03-15T04:34:19.443Z,0.00
2023-03-15T04:34:46.980Z,0.00
2023-03-15T04:35:47.004Z,0.00
2023-03-15T04:36:46.932Z,0.00
2023-03-15T04:37:46.899Z,0.00
2023-03-15T04:38:46.955Z,0.00
2023-03-15T04:39:46.960Z,0.00
2023-03-15T04:40:46.878Z,0.00
2023-03-15T04:41:47.932Z,0.00
2023-03-15T04:42:47.900Z,0.00
2023-03-15T04:43:46.948Z,0.00
2023-03-15T04:44:46.893Z,0.00
2023-03-15T04:45:46.860Z,0.00
2023-03-15T04:46:47.085Z,0.00
2023-03-15T04:47:46.859Z,0.00
2023-03-15T04:48:46.841Z,0.00
2023-03-15T04:49:46.869Z,0.00
2023-03-15T04:50:46.841Z,0.00
2023-03-15T04:51:46.825Z,0.00
2023-03-15T04:52:47.000Z,0.00
2023-03-15T04:53:47.827Z,0.00
2023-03-15T04:54:46.888Z,0.00
2023-03-15T04:55:46.822Z,0.00
2023-03-15T04:56:46.790Z,0.00
2023-03-15T04:57:46.785Z,0.00
2023-03-15T04:58:46.801Z,0.00
2023-03-15T04:59:46.826Z,0.00
2023-03-15T05:00:46.856Z,0.00
2023-03-15T05:01:46.845Z,0.00
2023-03-15T05:02:46.742Z,0.00
2023-03-15T05:03:46.753Z,0.00
2023-03-15T05:04:46.739Z,0.00
2023-03-15T05:05:46.735Z,0.00
2023-03-15T05:06:46.779Z,0.00
2023-03-15T05:07:46.744Z,0.00
2023-03-15T05:08:46.756Z,0.00
2023-03-15T05:09:46.801Z,0.00
2023-03-15T05:10:46.956Z,0.00
2023-03-15T05:11:46.753Z,0.00
2023-03-15T05:12:46.781Z,0.00
2023-03-15T05:13:46.756Z,0.00
2023-03-15T05:14:46.694Z,0.00
2023-03-15T05:15:46.723Z,0.00
2023-03-15T05:16:46.703Z,0.00
2023-03-15T05:17:46.741Z,0.00
2023-03-15T05:18:46.665Z,0.00
2023-03-15T05:19:46.679Z,0.00
2023-03-15T05:20:46.640Z,0.00
2023-03-15T05:21:46.658Z,0.00
2023-03-15T05:22:46.654Z,0.00
2023-03-15T05:23:46.671Z,0.00
2023-03-15T05:24:46.617Z,0.00
2023-03-15T05:25:46.613Z,0.00
2023-03-15T05:26:46.620Z,0.00
2023-03-15T05:27:46.616Z,0.00
2023-03-15T05:28:46.592Z,0.00
2023-03-15T05:29:46.599Z,0.00
2023-03-15T05:30:46.594Z,0.00
2023-03-15T05:31:46.614Z,0.00
2023-03-15T05:32:46.656Z,0.00
2023-03-15T05:33:46.606Z,0.00
2023-03-15T05:34:46.564Z,0.00
2023-03-15T05:35:46.598Z,0.00
2023-03-15T05:36:46.550Z,0.00
2023-03-15T05:37:46.546Z,0.00
2023-03-15T05:38:46.555Z,0.00
2023-03-15T05:39:46.564Z,0.00
2023-03-15T05:40:46.564Z,0.00
2023-03-15T05:41:46.518Z,0.00
2023-03-15T05:42:46.535Z,0.00
2023-03-15T05:43:46.522Z,0.00
2023-03-15T05:44:46.581Z,0.00
2023-03-15T05:45:46.612Z,0.00
2023-03-15T05:46:46.518Z,0.00
2023-03-15T05:47:46.524Z,0.00
2023-03-15T05:48:46.605Z,0.00
2023-03-15T05:49:46.483Z,0.00
2023-03-15T05:50:46.476Z,0.00
2023-03-15T05:51:46.475Z,0.00
2023-03-15T05:52:46.466Z,0.00
2023-03-15T05:53:46.503Z,0.00
2023-03-15T05:54:47.497Z,0.00
2023-03-15T05:55:46.456Z,0.00
2023-03-15T05:56:46.447Z,0.00
2023-03-15T05:57:46.427Z,5.62
2023-03-15T05:58:46.449Z,5.62
2023-03-15T05:59:46.407Z,5.62
2023-03-15T06:00:46.709Z,5.62
2023-03-15T06:01:46.427Z,5.62
2023-03-15T06:02:46.421Z,5.62
2023-03-15T06:03:46.428Z,11.25
2023-03-15T06:04:46.384Z,11.25
2023-03-15T06:05:46.417Z,11.25
2023-03-15T06:06:46.357Z,11.25
2023-03-15T06:07:46.382Z,11.25
2023-03-15T06:08:46.334Z,11.25
2023-03-15T06:09:46.344Z,11.25
2023-03-15T06:10:46.333Z,11.25
2023-03-15T06:11:46.346Z,16.88
2023-03-15T06:12:46.344Z,16.88
2023-03-15T06:13:46.315Z,22.50
2023-03-15T06:14:46.295Z,22.50
2023-03-15T06:15:46.330Z,28.12
2023-03-15T06:16:46.360Z,33.75
2023-03-15T06:17:46.294Z,33.75
2023-03-15T06:18:46.294Z,39.38
2023-03-15T06:19:46.289Z,39.38
2023-03-15T06:20:46.319Z,45.00
2023-03-15T06:21:46.285Z,50.62
2023-03-15T06:22:46.325Z,50.62
2023-03-15T06:23:46.243Z,45.00
2023-03-15T06:24:46.262Z,45.00
2023-03-15T06:25:46.804Z,45.00
2023-03-15T06:26:46.234Z,39.38
2023-03-15T06:27:46.295Z,33.75
2023-03-15T06:28:46.242Z,28.12
2023-03-15T06:29:46.249Z,22.50
2023-03-15T06:30:46.232Z,22.50
2023-03-15T06:31:46.227Z,16.88
2023-03-15T06:32:46.274Z,16.88
2023-03-15T06:33:46.190Z,16.88
2023-03-15T06:34:46.207Z,22.50
2023-03-15T06:35:46.206Z,28.12
2023-03-15T06:36:46.261Z,28.12
2023-03-15T06:37:46.289Z,28.12
2023-03-15T06:38:46.195Z,33.75
2023-03-15T06:39:46.169Z,28.12
2023-03-15T06:40:46.144Z,28.12
2023-03-15T06:41:46.210Z,22.50
2023-03-15T06:42:46.144Z,22.50
2023-03-15T06:43:46.131Z,22.50
2023-03-15T06:44:46.136Z,28.12
2023-03-15T06:45:46.178Z,28.12
2023-03-15T06:46:46.265Z,28.12
2023-03-15T06:47:46.101Z,33.75
2023-03-15T06:48:46.151Z,33.75
2023-03-15T06:49:46.100Z,39.38
2023-03-15T06:50:47.771Z,45.00
2023-03-15T06:51:47.084Z,56.25
2023-03-15T06:52:46.065Z,61.88
2023-03-15T06:53:46.101Z,61.88
2023-03-15T06:54:46.084Z,67.50
2023-03-15T06:55:46.192Z,67.50
2023-03-15T06:56:46.080Z,67.50
2023-03-15T06:57:46.041Z,67.50
2023-03-15T06:58:46.106Z,61.88
2023-03-15T06:59:46.099Z,61.88
2023-03-15T07:00:46.072Z,56.25
2023-03-15T07:01:46.047Z,56.25
2023-03-15T07:02:46.146Z,50.62
2023-03-15T07:03:46.109Z,56.25
2023-03-15T07:04:46.102Z,61.88
2023-03-15T07:05:46.020Z,67.50
2023-03-15T07:06:46.074Z,73.12
2023-03-15T07:07:45.989Z,78.75
2023-03-15T07:08:46.019Z,73.12
2023-03-15T07:09:46.031Z,67.50
2023-03-15T07:10:46.048Z,56.25
2023-03-15T07:11:45.977Z,56.25
2023-03-15T07:12:46.044Z,61.88
2023-03-15T07:13:46.037Z,73.12
2023-03-15T07:14:45.950Z,73.12
2023-03-15T07:15:46.054Z,67.50
2023-03-15T07:16:45.971Z,61.88
2023-03-15T07:17:45.937Z,56.25
2023-03-15T07:18:45.926Z,50.62
2023-03-15T07:19:55.828Z,50.62
2023-03-15T07:20:47.949Z,50.62
2023-03-15T07:21:45.911Z,45.00
2023-03-15T07:22:46.117Z,45.00
2023-03-15T07:23:46.931Z,45.00
2023-03-15T07:24:45.946Z,50.62
2023-03-15T07:25:54.829Z,45.00
2023-03-15T07:26:47.996Z,45.00
2023-03-15T07:27:45.902Z,39.38
2023-03-15T07:28:45.896Z,39.38
2023-03-15T07:29:45.916Z,39.38
2023-03-15T07:30:45.866Z,39.38
2023-03-15T07:31:45.915Z,45.00
2023-03-15T07:32:46.011Z,50.62
2023-03-15T07:33:45.941Z,61.88
2023-03-15T07:34:45.839Z,78.75
2023-03-15T07:35:45.835Z,90.00
2023-03-15T07:36:45.878Z,101.25
2023-03-15T07:37:45.852Z,123.75
2023-03-15T07:38:45.827Z,140.62
2023-03-15T07:39:45.853Z,157.50
2023-03-15T07:40:45.838Z,174.38
2023-03-15T07:41:45.826Z,196.88
2023-03-15T07:42:46.008Z,219.38
2023-03-15T07:43:45.872Z,264.38
2023-03-15T07:44:45.797Z,298.12
2023-03-15T07:45:45.893Z,303.75
2023-03-15T07:46:45.822Z,309.38
2023-03-15T07:47:45.764Z,326.25
2023-03-15T07:48:46.534Z,348.75
2023-03-15T07:49:45.725Z,388.12
2023-03-15T07:50:45.753Z,438.75
2023-03-15T07:51:45.746Z,1096.88
2023-03-15T07:52:46.765Z,821.25
2023-03-15T07:53:45.732Z,1001.25
2023-03-15T07:54:45.768Z,1125.00
2023-03-15T07:55:45.753Z,1231.88
2023-03-15T07:56:45.745Z,1659.38
2023-03-15T07:57:46.805Z,877.50
2023-03-15T07:58:45.705Z,1445.62
2023-03-15T07:59:45.693Z,1524.38
2023-03-15T08:00:45.675Z,900.00
2023-03-15T08:01:45.741Z,585.00
2023-03-15T08:02:45.738Z,573.75
2023-03-15T08:03:45.666Z,630.00
2023-03-15T08:04:45.669Z,371.25
2023-03-15T08:05:45.658Z,348.75
2023-03-15T08:06:45.653Z,320.62
2023-03-15T08:07:45.680Z,303.75
2023-03-15T08:08:45.676Z,298.12
2023-03-15T08:09:45.768Z,320.62
2023-03-15T08:10:45.695Z,343.12
2023-03-15T08:11:45.854Z,371.25
2023-03-15T08:12:45.681Z,421.88
2023-03-15T08:13:45.644Z,810.00
2023-03-15T08:14:45.700Z,500.62
2023-03-15T08:15:45.778Z,495.00
2023-03-15T08:16:45.660Z,523.12
2023-03-15T08:17:46.300Z,562.50
2023-03-15T08:18:45.610Z,658.12
2023-03-15T08:19:45.586Z,922.50
2023-03-15T08:20:45.579Z,860.62
2023-03-15T08:21:45.633Z,781.88
2023-03-15T08:22:45.570Z,1468.12
2023-03-15T08:23:45.578Z,669.38
2023-03-15T08:24:45.600Z,731.25
2023-03-15T08:25:45.537Z,838.12
2023-03-15T08:26:45.543Z,1411.88
2023-03-15T08:27:45.632Z,1102.50
2023-03-15T08:28:45.635Z,1220.62
2023-03-15T08:29:45.593Z,1119.38
2023-03-15T08:30:45.559Z,1383.75
2023-03-15T08:31:45.561Z,1440.00
2023-03-15T08:32:45.571Z,1535.62
2023-03-15T08:33:45.483Z,703.12
2023-03-15T08:34:45.442Z,1096.88
2023-03-15T08:35:45.575Z,1417.50
2023-03-15T08:36:45.544Z,1243.12
2023-03-15T08:37:45.474Z,1856.25
2023-03-15T08:38:45.452Z,2221.88
2023-03-15T08:39:45.501Z,2295.00
2023-03-15T08:40:45.452Z,2424.38
2023-03-15T08:41:45.404Z,2514.38
2023-03-15T08:42:45.448Z,2525.62
2023-03-15T08:43:45.433Z,2497.50
2023-03-15T08:44:45.438Z,1271.25
2023-03-15T08:46:00.183Z,2677.50
2023-03-15T08:46:47.487Z,2868.75
2023-03-15T08:47:45.473Z,2829.38
2023-03-15T08:48:45.393Z,1704.38
2023-03-15T08:49:45.365Z,1051.88
2023-03-15T08:50:45.369Z,551.25
2023-03-15T08:51:45.379Z,433.12
2023-03-15T08:52:45.397Z,354.38
2023-03-15T08:53:45.380Z,320.62
2023-03-15T08:54:45.379Z,292.50
2023-03-15T08:55:45.359Z,270.00
2023-03-15T08:56:45.402Z,247.50
2023-03-15T08:57:45.373Z,236.25
2023-03-15T08:58:45.312Z,208.12
2023-03-15T08:59:45.377Z,208.12
2023-03-15T09:00:45.308Z,219.38
2023-03-15T09:01:45.314Z,247.50
2023-03-15T09:02:45.328Z,281.25
2023-03-15T09:03:45.303Z,320.62
2023-03-15T09:04:45.323Z,343.12
2023-03-15T09:05:45.258Z,371.25
2023-03-15T09:06:45.321Z,511.88
2023-03-15T09:07:45.258Z,405.00
2023-03-15T09:08:45.309Z,410.62
2023-03-15T09:09:45.257Z,444.38
2023-03-15T09:10:45.277Z,500.62
2023-03-15T09:11:45.229Z,601.88
2023-03-15T09:12:45.221Z,2148.75
2023-03-15T09:13:45.200Z,742.50
2023-03-15T09:14:45.221Z,866.25
2023-03-15T09:15:45.184Z,810.00
2023-03-15T09:16:45.243Z,708.75
2023-03-15T09:17:45.221Z,714.38
2023-03-15T09:18:45.173Z,753.75
2023-03-15T09:19:45.162Z,810.00
2023-03-15T09:20:45.164Z,832.50
2023-03-15T09:21:45.173Z,2536.88
2023-03-15T09:22:45.172Z,1029.38
2023-03-15T09:23:45.128Z,759.38
2023-03-15T09:24:45.129Z,2514.38
2023-03-15T09:25:45.245Z,2790.00
2023-03-15T09:26:45.172Z,2739.38
2023-03-15T09:27:45.144Z,2570.62
2023-03-15T09:28:45.094Z,2694.38
2023-03-15T09:29:45.161Z,1485.00
2023-03-15T09:30:45.166Z,3172.50
2023-03-15T09:31:45.087Z,1788.75
2023-03-15T09:32:45.134Z,1496.25
2023-03-15T09:33:45.095Z,1006.88
2023-03-15T09:34:45.118Z,658.12
2023-03-15T09:35:50.897Z,579.38
2023-03-15T09:36:48.346Z,461.25
2023-03-15T09:37:45.237Z,393.75
2023-03-15T09:38:45.794Z,821.25
2023-03-15T09:39:45.095Z,354.38
2023-03-15T09:40:45.065Z,365.62
2023-03-15T09:41:45.105Z,399.38
2023-03-15T09:42:45.057Z,416.25
2023-03-15T09:43:44.996Z,438.75
2023-03-15T09:44:45.025Z,466.88
2023-03-15T09:45:45.018Z,500.62
2023-03-15T09:46:45.088Z,556.88
2023-03-15T09:47:45.094Z,630.00
2023-03-15T09:48:45.013Z,736.88
2023-03-15T09:49:45.009Z,838.12
2023-03-15T09:50:44.959Z,1006.88
2023-03-15T09:51:44.993Z,2407.50
2023-03-15T09:52:44.965Z,1591.88
2023-03-15T09:53:45.008Z,1119.38
2023-03-15T09:54:44.983Z,2328.75
2023-03-15T09:55:44.959Z,753.75
2023-03-15T09:56:44.913Z,641.25
2023-03-15T09:57:44.946Z,601.88
2023-03-15T09:58:45.046Z,545.62
2023-03-15T09:59:44.954Z,511.88
2023-03-15T10:00:44.939Z,478.12
2023-03-15T10:01:44.994Z,438.75
2023-03-15T10:02:44.892Z,421.88
2023-03-15T10:03:44.928Z,382.50
2023-03-15T10:04:44.965Z,354.38
2023-03-15T10:05:44.898Z,354.38
2023-03-15T10:06:44.954Z,365.62
2023-03-15T10:07:44.852Z,399.38
2023-03-15T10:08:44.834Z,444.38
2023-03-15T10:09:44.833Z,461.25
2023-03-15T10:10:44.858Z,483.75
2023-03-15T10:11:44.823Z,500.62
2023-03-15T10:12:44.873Z,500.62
2023-03-15T10:13:44.814Z,579.38
2023-03-15T10:14:44.804Z,871.88
2023-03-15T10:15:45.002Z,3082.50
2023-03-15T10:16:44.790Z,3060.00
2023-03-15T10:17:44.788Z,2958.75
2023-03-15T10:18:44.813Z,2553.75
2023-03-15T10:19:44.818Z,3099.38
2023-03-15T10:20:44.802Z,2643.75
2023-03-15T10:21:44.764Z,3071.25
2023-03-15T10:22:44.805Z,3279.38
2023-03-15T10:23:44.740Z,3155.62
2023-03-15T10:24:44.758Z,3330.00
2023-03-15T10:25:44.803Z,3442.50
2023-03-15T10:27:44.792Z,3273.75
2023-03-15T10:28:44.792Z,3217.50
2023-03-15T10:29:44.691Z,3003.75
2023-03-15T10:30:44.756Z,2823.75
2023-03-15T10:31:45.159Z,2233.12
2023-03-15T10:32:45.813Z,2998.12
2023-03-15T10:33:44.681Z,3189.38
2023-03-15T10:34:45.944Z,2902.50
2023-03-15T10:35:44.753Z,3465.00
2023-03-15T10:36:44.765Z,3785.62
2023-03-15T10:37:44.683Z,832.50
2023-03-15T10:38:44.879Z,2356.88
2023-03-15T10:39:44.663Z,1423.12
2023-03-15T10:40:44.633Z,3043.12
2023-03-15T10:41:44.666Z,2925.00
2023-03-15T10:42:44.614Z,663.75
2023-03-15T10:43:44.611Z,596.25
2023-03-15T10:44:44.589Z,618.75
2023-03-15T10:45:44.593Z,3481.88
2023-03-15T10:46:44.635Z,2041.88
2023-03-15T10:47:50.370Z,573.75
2023-03-15T10:48:46.598Z,461.25
2023-03-15T10:49:44.569Z,405.00
2023-03-15T10:50:44.540Z,326.25
2023-03-15T10:51:44.544Z,292.50
2023-03-15T10:52:44.544Z,298.12
2023-03-15T10:53:44.529Z,320.62
2023-03-15T10:54:44.999Z,326.25
2023-03-15T10:55:44.536Z,348.75
2023-03-15T10:56:44.513Z,388.12
2023-03-15T10:57:44.518Z,540.00
2023-03-15T10:58:44.529Z,1051.88
2023-03-15T10:59:44.492Z,3330.00
2023-03-15T11:00:44.479Z,2036.25
2023-03-15T11:01:45.525Z,2953.12
2023-03-15T11:02:44.532Z,3240.00
2023-03-15T11:03:44.499Z,1170.00
2023-03-15T11:04:44.507Z,579.38
2023-03-15T11:05:44.504Z,506.25
2023-03-15T11:06:44.489Z,506.25
2023-03-15T11:07:44.449Z,562.50
2023-03-15T11:08:44.452Z,523.12
2023-03-15T11:09:44.492Z,1710.00
2023-03-15T11:10:44.433Z,1035.00
2023-03-15T11:11:44.415Z,601.88
2023-03-15T11:12:44.428Z,405.00
2023-03-15T11:13:44.415Z,405.00
2023-03-15T11:14:44.404Z,607.50
2023-03-15T11:15:44.395Z,388.12
2023-03-15T11:16:44.454Z,455.62
2023-03-15T11:17:44.388Z,2615.62
2023-03-15T11:18:44.397Z,2801.25
2023-03-15T11:19:44.399Z,3054.38
2023-03-15T11:20:44.387Z,3026.25
2023-03-15T11:21:44.377Z,2902.50
2023-03-15T11:22:44.369Z,3273.75
2023-03-15T11:23:44.386Z,3706.88
2023-03-15T11:24:44.413Z,3954.38
2023-03-15T11:25:44.323Z,2947.50
2023-03-15T11:26:44.356Z,2621.25
2023-03-15T11:27:44.310Z,2896.88
2023-03-15T11:28:44.302Z,3009.38
2023-03-15T11:29:44.342Z,3414.38
2023-03-15T11:30:44.347Z,3346.88
2023-03-15T11:31:44.448Z,3105.00
2023-03-15T11:32:44.530Z,3206.25
2023-03-15T11:33:44.264Z,3420.00
2023-03-15T11:34:44.271Z,3268.12
2023-03-15T11:35:44.313Z,3875.62
2023-03-15T11:36:44.338Z,3667.50
2023-03-15T11:37:44.231Z,675.00
2023-03-15T11:38:44.243Z,528.75
2023-03-15T11:39:44.257Z,483.75
2023-03-15T11:40:44.259Z,472.50
2023-03-15T11:41:44.866Z,444.38
2023-03-15T11:42:44.215Z,450.00
2023-03-15T11:43:44.227Z,534.38
2023-03-15T11:44:44.200Z,810.00
2023-03-15T11:45:44.246Z,641.25
2023-03-15T11:46:44.203Z,438.75
2023-03-15T11:47:44.183Z,416.25
2023-03-15T11:48:44.247Z,517.50
2023-03-15T11:49:44.166Z,3003.75
2023-03-15T11:50:44.150Z,3273.75
2023-03-15T11:51:44.185Z,3200.62
2023-03-15T11:52:44.160Z,2885.62
2023-03-15T11:53:44.165Z,3223.12
2023-03-15T11:54:44.136Z,3105.00
2023-03-15T11:55:44.140Z,3127.50
2023-03-15T11:56:44.123Z,2081.25
2023-03-15T11:57:44.169Z,945.00
2023-03-15T11:58:44.136Z,973.12
2023-03-15T11:59:44.132Z,2452.50
2023-03-15T12:00:44.111Z,793.12
2023-03-15T12:01:44.099Z,596.25
2023-03-15T12:02:44.116Z,528.75
2023-03-15T12:03:44.178Z,585.00
2023-03-15T12:04:44.163Z,2002.50
2023-03-15T12:05:44.069Z,2407.50
2023-03-15T12:06:44.110Z,1980.00
2023-03-15T12:07:44.107Z,765.00
2023-03-15T12:08:44.104Z,2930.62
2023-03-15T12:09:44.023Z,3116.25
2023-03-15T12:10:44.033Z,3375.00
2023-03-15T12:11:44.037Z,3245.62
2023-03-15T12:12:44.031Z,3318.75
2023-03-15T12:13:44.078Z,3290.62
2023-03-15T12:14:43.991Z,3352.50
2023-03-15T12:15:44.091Z,3217.50
2023-03-15T12:16:44.024Z,3487.50
2023-03-15T12:17:43.993Z,3543.75
2023-03-15T12:18:44.035Z,3240.00
2023-03-15T12:19:43.990Z,1625.62
2023-03-15T12:20:44.017Z,3245.62
2023-03-15T12:21:43.965Z,2958.75
2023-03-15T12:22:43.959Z,1288.12
2023-03-15T12:23:43.960Z,742.50
2023-03-15T12:24:43.919Z,714.38
2023-03-15T12:25:54.434Z,776.25
2023-03-15T12:26:45.903Z,2936.25
2023-03-15T12:27:43.925Z,3009.38
2023-03-15T12:28:43.910Z,669.38
2023-03-15T12:29:45.708Z,669.38
2023-03-15T12:30:44.915Z,641.25
2023-03-15T12:31:43.890Z,562.50
2023-03-15T12:32:43.896Z,517.50
2023-03-15T12:33:43.880Z,500.62
2023-03-15T12:34:43.884Z,500.62
2023-03-15T12:35:43.882Z,573.75
2023-03-15T12:36:43.835Z,613.12
2023-03-15T12:37:43.877Z,1479.38
2023-03-15T12:38:44.347Z,939.38
2023-03-15T12:39:43.856Z,1029.38
2023-03-15T12:40:43.928Z,928.12
2023-03-15T12:41:43.813Z,765.00
2023-03-15T12:42:43.808Z,551.25
2023-03-15T12:43:43.844Z,416.25
2023-03-15T12:44:43.793Z,343.12
2023-03-15T12:45:43.789Z,292.50
2023-03-15T12:46:43.861Z,241.88
2023-03-15T12:47:43.827Z,191.25
2023-03-15T12:48:44.383Z,140.62
2023-03-15T12:49:43.847Z,146.25
2023-03-15T12:50:43.748Z,185.62